Time;durP1;ratioP1;P1;durP2;ratioP2;P2;SDS_P1;SDS_P2;PMS_P1;PMS_P2;Temp;Humidity;BMP_temperature;BMP_pressure;BME280_temperature;BME280_humidity;BME280_pressure;Samples;Min_cycle;Max_cycle;Signal;HPM_P1;HPM_P2
2022/10/03 00:01:48;;;;;;;6.68;2.20;;;;;;;19.74;63.74;101336.28;5006993;28;20057;-80
2022/10/03 00:04:45;;;;;;;5.38;1.80;;;;;;;19.69;64.30;101338.66;5005965;28;20452;-81
2022/10/03 00:07:35;;;;;;;3.22;1.65;;;;;;;19.68;63.46;101347.75;5007338;28;20050;-81
2022/10/03 00:10:13;;;;;;;5.10;2.03;;;;;;;19.64;64.07;101346.41;5007908;28;20455;-81
2022/10/03 00:12:46;;;;;;;7.07;1.70;;;;;;;19.69;64.22;101345.91;5007110;28;20073;-79
2022/10/03 00:15:25;;;;;;;10.18;2.40;;;;;;;19.38;64.09;101304.47;5008620;28;20056;-82
2022/10/03 00:17:51;;;;;;;5.68;2.10;;;;;;;19.63;63.62;101329.41;5006975;28;20439;-81
2022/10/03 00:20:18;;;;;;;5.53;2.08;;;;;;;19.72;64.05;101340.16;5006928;28;20079;-80
2022/10/03 00:23:09;;;;;;;6.72;2.63;;;;;;;19.53;64.37;101318.03;5006704;28;20144;-82
2022/10/03 00:25:46;;;;;;;8.80;2.25;;;;;;;19.75;63.95;101350.56;5008107;28;20049;-79
2022/10/03 00:28:37;;;;;;;6.90;2.75;;;;;;;19.66;64.44;101344.38;5006956;28;20140;-79
2022/10/03 00:31:12;;;;;;;6.60;2.10;;;;;;;19.67;64.36;101346.06;5007135;28;20048;-80
2022/10/03 00:34:00;;;;;;;4.78;2.25;;;;;;;19.55;64.60;101321.38;5006821;28;20081;-79
2022/10/03 00:36:41;;;;;;;5.22;1.83;;;;;;;19.71;64.21;101347.41;5006495;28;20443;-80
2022/10/03 00:39:37;;;;;;;7.28;2.30;;;;;;;19.66;64.56;101360.56;4987492;28;20221;-81
2022/10/03 00:42:31;;;;;;;4.15;1.98;;;;;;;19.52;65.20;101335.22;4986468;28;20060;-80
2022/10/03 00:45:29;;;;;;;3.80;1.48;;;;;;;19.63;64.93;101356.31;4987006;28;20479;-80
2022/10/03 00:48:15;;;;;;;3.65;2.00;;;;;;;19.70;64.93;101356.50;4987460;28;20081;-81
2022/10/03 00:50:57;;;;;;;11.15;2.33;;;;;;;19.62;64.84;101345.75;5006596;28;20045;-82
2022/10/03 00:53:48;;;;;;;7.07;2.35;;;;;;;19.70;64.47;101356.50;5006672;28;20079;-81
2022/10/03 00:56:34;;;;;;;4.93;2.40;;;;;;;19.28;64.68;101289.59;5007974;28;20050;-80
2022/10/03 00:59:39;;;;;;;8.80;2.25;;;;;;;19.74;65.27;101363.22;5006488;28;20132;-81
2022/10/03 01:02:38;;;;;;;8.93;2.60;;;;;;;19.77;64.26;101356.63;5007272;28;20049;-80
2022/10/03 01:05:17;;;;;;;8.85;2.00;;;;;;;19.82;64.17;101352.38;4991412;28;20056;-80
2022/10/03 01:07:57;;;;;;;6.65;2.25;;;;;;;19.86;64.29;101355.56;5007755;28;20057;-81
2022/10/03 01:10:40;;;;;;;7.10;2.00;;;;;;;19.56;64.28;101314.13;5007444;28;20053;-81
2022/10/03 01:13:31;;;;;;;10.15;2.22;;;;;;;19.50;65.18;101309.47;5006331;28;20147;-80
2022/10/03 01:16:10;;;;;;;6.38;2.03;;;;;;;19.89;63.84;101365.13;5007016;28;20611;-81
2022/10/03 01:18:46;;;;;;;5.32;1.90;;;;;;;20.01;63.30;101356.44;5005778;28;20045;-80
2022/10/03 01:21:28;;;;;;;5.75;2.35;;;;;;;20.01;63.27;101358.31;5005476;28;20054;-82
2022/10/03 01:24:17;;;;;;;7.13;2.67;;;;;;;19.97;63.52;101357.00;5004407;28;20046;-81
2022/10/03 01:27:00;;;;;;;5.97;2.03;;;;;;;20.06;63.20;101369.38;5004329;28;20046;-79
2022/10/03 01:32:39;;;;;;;9.82;2.20;;;;;;;19.40;63.27;101348.22;5006790;28;20596;-81
2022/10/03 01:35:24;;;;;;;6.75;2.42;;;;;;;19.42;64.20;101377.69;5005489;28;20500;-80
2022/10/03 01:37:51;;;;;;;12.07;2.80;;;;;;;18.66;64.52;101271.47;4993070;28;20085;-80
2022/10/03 01:40:28;;;;;;;9.00;2.72;;;;;;;19.28;64.85;101375.72;4984898;28;20161;-80
2022/10/03 01:43:20;;;;;;;6.40;2.95;;;;;;;19.24;64.79;101379.75;4985310;28;20046;-80
2022/10/03 01:46:15;;;;;;;7.90;2.10;;;;;;;19.08;65.20;101361.81;4985087;28;20051;-81
2022/10/03 01:48:52;;;;;;;5.95;2.10;;;;;;;19.31;64.20;101378.88;4990346;28;20056;-81
2022/10/03 01:51:32;;;;;;;11.02;3.22;;;;;;;19.16;64.36;101380.63;5005082;28;20053;-80
2022/10/03 01:54:41;;;;;;;7.32;2.20;;;;;;;19.02;64.83;101389.44;5004781;28;20053;-80
2022/10/03 01:57:26;;;;;;;7.95;2.47;;;;;;;18.98;65.83;101389.78;4948702;28;20051;-80
2022/10/03 02:00:01;;;;;;;6.50;2.40;;;;;;;18.84;65.55;101366.28;5000555;28;20049;-81
2022/10/03 02:02:53;;;;;;;7.53;2.45;;;;;;;18.99;65.47;101394.13;5006449;28;20050;-80
2022/10/03 02:05:23;;;;;;;5.35;3.08;;;;;;;18.90;66.22;101383.56;5004991;28;20049;-81
2022/10/03 02:08:03;;;;;;;9.80;3.15;;;;;;;18.49;65.92;101325.28;5004952;28;20057;-80
2022/10/03 02:11:01;;;;;;;7.68;2.80;;;;;;;18.79;66.48;101395.53;5005475;28;20588;-80
2022/10/03 02:13:46;;;;;;;8.02;3.22;;;;;;;18.72;66.41;101386.44;5005483;28;20510;-80
2022/10/03 02:16:37;;;;;;;6.75;3.08;;;;;;;18.71;66.51;101392.81;5005355;28;20148;-82
2022/10/03 02:19:29;;;;;;;9.48;3.03;;;;;;;18.69;66.56;101393.00;5006214;28;20143;-80
2022/10/03 02:21:59;;;;;;;8.63;2.95;;;;;;;18.72;66.64;101389.13;5004525;28;20630;-80
2022/10/03 02:24:34;;;;;;;8.70;2.60;;;;;;;18.67;66.90;101392.34;5004767;28;20057;-84
2022/10/03 02:27:35;;;;;;;8.85;2.70;;;;;;;18.62;66.99;101399.22;5004380;28;20049;-80
2022/10/03 02:30:31;;;;;;;6.45;2.80;;;;;;;18.54;67.07;101409.00;5004900;28;20311;-81
2022/10/03 02:33:10;;;;;;;7.68;2.97;;;;;;;18.49;67.52;101405.94;5004965;28;20057;-81
2022/10/03 02:36:01;;;;;;;8.52;2.83;;;;;;;18.51;67.32;101413.84;5004723;28;20052;-81
2022/10/03 02:38:52;;;;;;;10.13;3.47;;;;;;;18.50;67.80;101407.66;5004359;28;20403;-80
2022/10/03 02:41:25;;;;;;;5.10;3.00;;;;;;;18.48;67.94;101409.66;5005213;28;20054;-80
2022/10/03 02:44:07;;;;;;;10.20;3.03;;;;;;;18.48;67.33;101412.34;5005475;28;20204;-81
2022/10/03 02:46:39;;;;;;;;;;;;;;;18.44;67.91;101421.75;5005531;28;20136;-81
2022/10/03 02:49:44;;;;;;;6.70;2.97;;;;;;;18.50;67.27;101420.25;5017910;28;19932;-80
2022/10/03 02:52:41;;;;;;;9.13;2.60;;;;;;;18.50;67.12;101421.09;4984905;28;20467;-82
2022/10/03 02:56:02;;;;;;;4.50;2.10;;;;;;;18.09;67.48;101345.81;4985411;28;20065;-80
2022/10/03 02:58:50;;;;;;;10.30;3.15;;;;;;;18.54;67.91;101410.81;4948206;28;20141;-81
2022/10/03 03:01:23;;;;;;;13.20;2.75;;;;;;;18.54;67.68;101416.19;4982973;28;20042;-81
2022/10/03 03:04:08;;;;;;;10.45;2.92;;;;;;;17.98;67.73;101313.06;4984983;28;20146;-81
2022/10/03 03:06:53;;;;;;;9.73;2.55;;;;;;;18.41;67.75;101386.31;4984856;28;20108;-81
2022/10/03 03:09:46;;;;;;;5.85;2.63;;;;;;;18.34;67.74;101375.38;4985205;28;20047;-81
2022/10/03 03:12:27;;;;;;;6.95;2.88;;;;;;;18.66;67.54;101414.00;4983420;28;20450;-80
2022/10/03 03:15:38;;;;;;;6.38;2.38;;;;;;;18.67;67.67;101421.91;4983289;28;20570;-80
2022/10/03 03:18:23;;;;;;;9.30;2.70;;;;;;;18.66;67.87;101417.53;4983278;28;20225;-81
2022/10/03 03:21:31;;;;;;;8.48;3.03;;;;;;;18.54;67.60;101403.63;5016909;28;20050;-81
2022/10/03 03:24:22;;;;;;;8.07;2.70;;;;;;;18.74;67.28;101430.16;4979142;28;20050;-81
2022/10/03 03:27:20;;;;;;;8.88;2.50;;;;;;;18.73;68.10;101417.69;4968629;28;20058;-80
2022/10/03 03:30:01;;;;;;;4.75;2.83;;;;;;;18.69;68.65;101427.09;4987255;28;20136;-79
2022/10/03 03:32:58;;;;;;;7.45;2.70;;;;;;;18.65;68.67;101429.31;4988370;28;20057;-80
2022/10/03 03:35:30;;;;;;;4.80;2.70;;;;;;;18.70;68.48;101443.09;4990288;28;20081;-81
2022/10/03 03:38:38;;;;;;;7.07;2.80;;;;;;;18.64;68.64;101429.47;5002960;28;20110;-82
2022/10/03 03:41:12;;;;;;;5.80;2.78;;;;;;;18.74;68.53;101440.91;4978212;28;20046;-82
2022/10/03 03:43:43;;;;;;;10.20;3.20;;;;;;;18.79;67.91;101449.34;5018456;28;20077;-80
2022/10/03 03:46:31;;;;;;;12.80;2.80;;;;;;;18.73;68.46;101449.97;5017821;28;20081;-81
2022/10/03 03:49:17;;;;;;;8.20;3.10;;;;;;;18.69;68.51;101444.09;5014477;28;20068;-80
2022/10/03 03:52:10;;;;;;;10.60;2.55;;;;;;;18.78;68.90;101461.09;5016634;28;20500;-81
2022/10/03 03:54:36;;;;;;;6.82;2.95;;;;;;;18.69;69.09;101448.63;4995902;28;20088;-80
2022/10/03 03:57:31;;;;;;;5.97;2.67;;;;;;;18.78;67.99;101455.72;5017901;28;20141;-81
2022/10/03 04:00:07;;;;;;;8.52;3.08;;;;;;;18.86;67.43;101455.72;5008815;28;20079;-81
2022/10/03 04:02:56;;;;;;;8.15;2.92;;;;;;;18.85;68.44;101445.13;5008681;28;20510;-81
2022/10/03 04:05:49;;;;;;;5.57;3.13;;;;;;;18.75;67.08;101421.06;5008346;28;20244;-81
2022/10/03 04:08:15;;;;;;;8.45;3.55;;;;;;;18.34;67.68;101354.72;5009557;28;20050;-80
2022/10/03 04:11:02;;;;;;;11.52;3.25;;;;;;;18.79;68.52;101443.97;5008278;28;20148;-81
2022/10/03 04:13:32;;;;;;;8.30;3.25;;;;;;;18.81;68.28;101450.00;5008082;28;20054;-81
2022/10/03 04:18:56;;;;;;;7.45;2.97;;;;;;;18.86;67.86;101458.41;5007927;28;20057;-80
2022/10/03 04:19:47;;;;;;;11.70;3.30;;;;;;;18.68;68.14;101422.75;5009401;28;20052;-80
2022/10/03 04:22:35;;;;;;;7.13;3.05;;;;;;;18.52;68.30;101400.25;5007675;28;20381;-81
2022/10/03 04:25:08;;;;;;;11.98;3.05;;;;;;;18.85;67.45;101448.66;5007606;28;20132;-80
2022/10/03 04:27:37;;;;;;;10.25;3.38;;;;;;;18.91;66.96;101464.13;5008085;28;20096;-80
2022/10/03 04:30:19;;;;;;;7.72;2.90;;;;;;;18.84;67.07;101460.44;5007987;28;20148;-81
2022/10/03 04:32:48;;;;;;;;;;;;;;;18.76;66.92;101457.72;5008378;28;20057;-80
2022/10/03 04:35:43;;;;;;;10.30;2.80;;;;;;;18.38;66.64;101397.41;5007466;28;19984;-80
2022/10/03 04:38:34;;;;;;;11.57;3.33;;;;;;;18.73;66.90;101460.72;5007391;28;20049;-81
2022/10/03 04:41:11;;;;;;;13.23;3.28;;;;;;;18.71;67.15;101468.97;5007471;28;20050;-80
2022/10/03 04:43:47;;;;;;;11.02;2.83;;;;;;;18.71;67.16;101471.66;5007199;28;20053;-81
2022/10/03 04:46:29;;;;;;;7.35;3.20;;;;;;;18.73;66.94;101474.19;5006935;28;20504;-80
2022/10/03 04:49:34;;;;;;;8.75;3.25;;;;;;;18.73;67.25;101468.81;5008451;28;20129;-79
2022/10/03 04:52:24;;;;;;;6.35;3.05;;;;;;;18.73;67.10;101479.56;4987218;28;20046;-80
2022/10/03 04:55:05;;;;;;;8.98;3.45;;;;;;;18.73;67.11;101477.69;5007877;28;20288;-81
2022/10/03 04:57:50;;;;;;;12.07;3.13;;;;;;;18.74;66.91;101478.56;5007685;28;20057;-80
2022/10/03 05:00:33;;;;;;;9.77;2.97;;;;;;;18.76;66.92;101492.69;5007746;28;20396;-82
2022/10/03 05:03:03;;;;;;;9.95;3.65;;;;;;;18.43;67.12;101438.91;5007499;28;20054;-80
2022/10/03 05:05:56;;;;;;;7.88;2.92;;;;;;;18.42;66.75;101437.19;5007502;28;20168;-80
2022/10/03 05:09:11;;;;;;;15.15;3.20;;;;;;;18.28;66.70;101414.53;5007269;28;20501;-79
2022/10/03 05:11:43;;;;;;;8.00;3.42;;;;;;;18.67;67.09;101488.31;4950318;28;20050;-79
2022/10/03 05:14:38;;;;;;;9.18;3.63;;;;;;;18.74;66.63;101489.31;4997155;28;20050;-80
2022/10/03 05:17:24;;;;;;;5.45;3.03;;;;;;;18.60;66.98;101481.94;5007064;28;20136;-79
2022/10/03 05:20:27;;;;;;;7.53;3.20;;;;;;;18.45;67.14;101458.41;5006775;28;20046;-80
2022/10/03 05:23:11;;;;;;;10.05;3.70;;;;;;;18.58;67.04;101482.09;4975660;28;20126;-79
2022/10/03 05:25:53;;;;;;;11.30;3.40;;;;;;;18.49;67.49;101481.22;5006816;28;20140;-78
2022/10/03 05:28:58;;;;;;;9.23;3.40;;;;;;;18.44;67.66;101499.72;5007272;28;20064;-79
2022/10/03 05:31:32;;;;;;;6.30;3.63;;;;;;;18.38;67.93;101519.19;5007607;28;20141;-79
2022/10/03 05:34:17;;;;;;;16.48;3.78;;;;;;;18.20;67.82;101480.84;5008443;28;20535;-78
2022/10/03 05:37:24;;;;;;;7.65;3.42;;;;;;;18.40;67.64;101519.88;5007588;28;20053;-79
2022/10/03 05:40:14;;;;;;;10.27;4.15;;;;;;;18.39;67.69;101523.56;5006212;28;20086;-80
2022/10/03 05:42:46;;;;;;;8.70;3.55;;;;;;;18.33;67.78;101514.31;5003263;28;20338;-79
2022/10/03 05:45:29;;;;;;;7.82;3.85;;;;;;;18.30;68.59;101513.78;5003031;28;20046;-79
2022/10/03 05:48:30;;;;;;;7.03;4.15;;;;;;;18.26;68.65;101512.47;5008738;28;20052;-78
2022/10/03 05:51:19;;;;;;;14.35;4.07;;;;;;;18.26;68.69;101517.84;5042477;28;20076;-79
2022/10/03 05:54:14;;;;;;;7.10;3.53;;;;;;;18.25;68.94;101516.13;5023636;28;20587;-77
2022/10/03 05:57:11;;;;;;;10.40;3.75;;;;;;;17.81;68.66;101443.81;5021612;28;20058;-78
2022/10/03 05:59:42;;;;;;;5.15;3.38;;;;;;;18.23;68.83;101512.78;5007306;28;20061;-79
2022/10/03 06:02:14;;;;;;;10.38;3.70;;;;;;;18.20;68.97;101505.03;4989373;28;20509;-78
2022/10/03 06:05:18;;;;;;;10.85;4.25;;;;;;;18.31;69.13;101516.31;5018707;28;20050;-78
2022/10/03 06:08:03;;;;;;;17.67;4.70;;;;;;;18.35;69.11;101516.84;5023769;28;20141;-81
2022/10/03 06:10:49;;;;;;;9.38;4.13;;;;;;;18.33;68.68;101530.44;5010562;28;20401;-80
2022/10/03 06:13:34;;;;;;;7.88;3.35;;;;;;;18.40;68.34;101530.63;5005416;28;20100;-79
2022/10/03 06:16:49;;;;;;;11.45;3.88;;;;;;;18.22;68.21;101503.03;5004862;28;20092;-81
2022/10/03 06:19:54;;;;;;;9.95;4.03;;;;;;;18.42;68.36;101530.44;4993318;28;20404;-80
2022/10/03 06:22:45;;;;;;;9.60;4.25;;;;;;;18.16;68.16;101483.06;4949962;28;20078;-78
2022/10/03 06:25:45;;;;;;;10.75;4.68;;;;;;;18.49;68.41;101543.06;5004711;28;20327;-79
2022/10/03 06:28:45;;;;;;;8.57;3.63;;;;;;;18.52;67.56;101533.81;4995087;28;20183;-78
2022/10/03 06:31:48;;;;;;;14.07;4.38;;;;;;;18.52;67.87;101536.50;5006578;28;20049;-82
2022/10/03 06:34:40;;;;;;;16.60;4.32;;;;;;;18.61;68.06;101537.38;5006699;28;20502;-79
2022/10/03 06:37:41;;;;;;;12.10;4.45;;;;;;;18.63;68.40;101538.06;5006504;28;20129;-77
2022/10/03 06:40:31;;;;;;;13.82;4.57;;;;;;;18.69;68.10;101540.94;5005367;28;20050;-79
2022/10/03 06:43:10;;;;;;;10.20;3.92;;;;;;;18.71;67.92;101536.19;5006695;28;20045;-79
2022/10/03 06:46:10;;;;;;;10.05;4.03;;;;;;;18.82;67.24;101545.84;5007856;28;20168;-80
2022/10/03 06:49:18;;;;;;;13.50;4.53;;;;;;;18.83;67.35;101539.44;5001644;28;20065;-79
2022/10/03 06:52:26;;;;;;;8.77;4.30;;;;;;;18.93;67.53;101547.34;4986791;28;20047;-79
2022/10/03 06:55:11;;;;;;;11.13;3.83;;;;;;;19.00;66.74;101549.22;4988119;28;20046;-81
2022/10/03 06:57:56;;;;;;;15.52;3.97;;;;;;;18.86;66.60;101524.81;4986913;28;20054;-80
2022/10/03 07:01:07;;;;;;;10.93;3.72;;;;;;;19.05;66.98;101559.44;5006450;28;20137;-79
2022/10/03 07:03:53;;;;;;;11.48;4.35;;;;;;;19.06;67.51;101563.84;5005782;28;20062;-78
2022/10/03 07:07:06;;;;;;;8.75;4.10;;;;;;;19.16;66.72;101561.81;5007394;28;20140;-80
2022/10/03 07:09:44;;;;;;;11.05;4.68;;;;;;;19.23;66.70;101567.34;4985999;28;20076;-78
2022/10/03 07:12:33;;;;;;;15.98;4.63;;;;;;;19.19;66.00;101548.00;5007752;28;20076;-79
2022/10/03 07:15:30;;;;;;;12.00;4.97;;;;;;;19.42;65.68;101564.28;5011659;28;20504;-79
2022/10/03 07:18:36;;;;;;;12.60;5.10;;;;;;;19.51;65.53;101561.56;5012330;28;20046;-78
2022/10/03 07:21:27;;;;;;;15.82;5.00;;;;;;;19.55;65.13;101563.75;5012253;28;20053;-80
2022/10/03 07:24:08;;;;;;;10.02;4.88;;;;;;;19.70;64.78;101568.47;5011627;28;20050;-80
2022/10/03 07:27:14;;;;;;;15.02;5.75;;;;;;;19.67;64.56;101566.94;5010526;28;20404;-80
2022/10/03 07:29:47;;;;;;;13.35;4.63;;;;;;;19.28;65.31;101507.63;4987979;28;20129;-80
2022/10/03 07:32:36;;;;;;;10.38;4.35;;;;;;;19.68;64.90;101563.25;5009872;28;20058;-82
2022/10/03 07:39:02;;;;;;;18.70;4.63;;;;;;;19.75;64.97;101561.53;5011751;28;20049;-80
2022/10/03 07:41:48;;;;;;;12.68;4.78;;;;;;;19.84;64.51;101565.88;4992527;28;20420;-81
2022/10/03 07:44:46;;;;;;;17.85;4.85;;;;;;;19.99;63.46;101570.56;5008243;28;20282;-80
2022/10/03 07:47:40;;;;;;;12.73;4.32;;;;;;;20.02;63.51;101571.03;5011295;28;20078;-82
2022/10/03 07:50:40;;;;;;;13.20;3.92;;;;;;;20.17;62.65;101576.53;4997727;28;20061;-78
2022/10/03 07:53:13;;;;;;;10.95;4.28;;;;;;;20.14;62.97;101579.56;4992455;28;20144;-80
2022/10/03 07:56:06;;;;;;;20.55;5.30;;;;;;;19.83;62.82;101515.72;5027703;28;20473;-79
2022/10/03 07:58:41;;;;;;;14.23;4.32;;;;;;;19.95;62.98;101558.44;5030217;28;20149;-79
2022/10/03 08:01:33;;;;;;;18.52;4.55;;;;;;;20.21;63.04;101579.72;4990901;28;20058;-80
2022/10/03 08:04:34;;;;;;;12.77;4.15;;;;;;;20.08;62.75;101574.91;4959135;28;20105;-78
2022/10/03 08:07:25;;;;;;;13.38;4.50;;;;;;;20.26;62.35;101582.72;4970329;28;20110;-79
2022/10/03 08:10:04;;;;;;;13.10;4.35;;;;;;;19.94;63.01;101543.28;4969310;28;20109;-79
2022/10/03 08:12:34;;;;;;;14.90;4.97;;;;;;;20.25;62.41;101578.34;4970804;28;20532;-80
2022/10/03 08:15:28;;;;;;;10.18;3.65;;;;;;;20.21;63.27;101580.56;4983734;28;20046;-79
2022/10/03 08:18:16;;;;;;;14.00;4.85;;;;;;;20.12;63.03;101564.59;4993531;28;20054;-79
2022/10/03 08:20:48;;;;;;;9.93;4.68;;;;;;;20.44;62.23;101582.47;4987878;28;20078;-79
2022/10/03 08:24:01;;;;;;;16.35;4.47;;;;;;;19.05;62.36;101372.94;4972385;28;20137;-79
2022/10/03 08:26:54;;;;;;;13.85;4.85;;;;;;;20.29;62.74;101593.16;4959962;28;20060;-78
2022/10/03 08:30:00;;;;;;;9.07;4.57;;;;;;;20.39;62.75;101609.97;4971325;28;20050;-78
2022/10/03 08:32:30;;;;;;;16.98;4.15;;;;;;;20.52;61.78;101604.00;4996844;28;20100;-78
2022/10/03 08:35:06;;;;;;;10.30;3.92;;;;;;;20.14;61.96;101552.63;4994272;28;20161;-81
2022/10/03 08:37:44;;;;;;;13.50;4.50;;;;;;;20.11;62.02;101542.19;4984806;28;20051;-81
2022/10/03 08:40:52;;;;;;;21.83;4.75;;;;;;;20.62;61.58;101617.28;4977363;28;20064;-80
2022/10/03 08:44:06;;;;;;;11.13;4.10;;;;;;;20.53;61.96;101594.03;4985854;28;20067;-81
2022/10/03 08:46:45;;;;;;;7.45;4.25;;;;;;;20.69;61.73;101616.38;4991390;28;20057;-80
2022/10/03 08:49:35;;;;;;;13.85;3.40;;;;;;;20.74;61.73;101610.47;4982197;28;20050;-80
2022/10/03 08:52:06;;;;;;;17.65;4.88;;;;;;;20.56;61.70;101573.00;4973679;28;20078;-79
2022/10/03 08:54:58;;;;;;;13.65;4.38;;;;;;;21.04;60.85;101616.81;4972300;28;20069;-79
2022/10/03 08:57:54;;;;;;;10.77;4.55;;;;;;;21.01;60.98;101598.28;4922548;28;20117;-81
2022/10/03 09:00:51;;;;;;;11.85;4.43;;;;;;;20.22;60.70;101460.94;4969935;28;20053;-81
2022/10/03 09:03:40;;;;;;;12.60;4.55;;;;;;;21.33;60.11;101607.94;5002621;28;20559;-78
2022/10/03 09:06:33;;;;;;;19.45;4.90;;;;;;;21.37;60.87;101613.84;5009097;28;20061;-76
2022/10/03 09:09:19;;;;;;;16.35;4.78;;;;;;;21.49;60.13;101590.78;4946596;28;22476;-77
2022/10/03 09:12:12;;;;;;;19.10;4.93;;;;;;;21.66;59.02;101590.63;5014037;28;20124;-79
2022/10/03 09:14:52;;;;;;;18.52;6.80;;;;;;;21.79;59.53;101612.44;5007990;28;20149;-78
2022/10/03 09:17:34;;;;;;;18.73;4.95;;;;;;;21.67;59.38;101581.50;5040008;28;20053;-81
2022/10/03 09:20:41;;;;;;;16.23;5.68;;;;;;;22.15;58.82;101619.78;5007424;28;20468;-80
2022/10/03 09:23:30;;;;;;;18.67;6.22;;;;;;;22.22;58.91;101625.31;5007497;28;20572;-78
2022/10/03 09:26:25;;;;;;;23.38;6.93;;;;;;;22.29;58.89;101618.13;5007667;28;20309;-80
2022/10/03 09:29:30;;;;;;;20.85;6.32;;;;;;;21.26;58.56;101430.66;5008095;28;20051;-79
2022/10/03 09:32:28;;;;;;;20.15;7.95;;;;;;;21.91;58.26;101508.22;5008363;28;20049;-78
2022/10/03 09:35:43;;;;;;;18.92;7.03;;;;;;;22.65;58.88;101611.84;5009372;28;20100;-79
2022/10/03 09:38:28;;;;;;;17.38;8.43;;;;;;;22.77;58.33;101611.19;4967305;28;20061;-78
2022/10/03 09:41:06;;;;;;;24.15;8.80;;;;;;;22.92;57.53;101607.59;4951729;28;20141;-81
2022/10/03 09:44:23;;;;;;;17.52;9.20;;;;;;;22.92;56.99;101585.94;4989149;28;20077;-81
2022/10/03 09:47:22;;;;;;;20.77;7.18;;;;;;;23.29;57.58;101608.34;4983991;28;20479;-80
2022/10/03 09:50:23;;;;;;;23.80;8.27;;;;;;;23.04;56.89;101524.81;5012901;28;20081;-82
2022/10/03 09:53:10;;;;;;;24.35;8.50;;;;;;;23.80;55.76;101608.09;5009181;28;20136;-80
2022/10/03 09:56:14;;;;;;;22.08;8.10;;;;;;;23.86;55.47;101605.44;5007880;28;20468;-79
2022/10/03 09:59:01;;;;;;;21.85;8.18;;;;;;;23.87;55.20;101590.00;5003804;28;20061;-79
2022/10/03 10:01:49;;;;;;;18.98;8.23;;;;;;;24.14;55.06;101601.00;4989790;28;20058;-81
2022/10/03 10:04:22;;;;;;;18.45;8.10;;;;;;;24.23;54.63;101606.03;4987643;28;20061;-80
2022/10/03 10:07:42;;;;;;;27.38;8.20;;;;;;;24.34;54.09;101611.91;4989107;28;20060;-80
2022/10/03 10:10:37;;;;;;;17.80;8.20;;;;;;;24.59;53.74;101614.94;4988497;28;20089;-80
2022/10/03 10:13:12;;;;;;;16.38;8.85;;;;;;;24.36;53.60;101564.53;4989191;28;20476;-80
2022/10/03 10:16:11;;;;;;;18.23;7.00;;;;;;;24.84;53.25;101613.34;4988213;28;20046;-80
2022/10/03 10:18:51;;;;;;;19.77;9.05;;;;;;;24.63;52.59;101557.31;4989071;28;20546;-79
2022/10/03 10:21:36;;;;;;;18.23;7.88;;;;;;;24.64;52.16;101548.16;4987679;28;20081;-79
2022/10/03 10:24:27;;;;;;;19.77;7.88;;;;;;;25.03;51.16;101597.28;4987137;28;20150;-80
2022/10/03 10:27:32;;;;;;;24.33;7.75;;;;;;;25.07;51.17;101574.06;4988589;28;20640;-80
2022/10/03 10:30:13;;;;;;;20.17;9.68;;;;;;;25.30;50.98;101596.25;4987923;28;20050;-79
2022/10/03 10:33:18;;;;;;;21.63;9.82;;;;;;;25.44;51.37;101591.66;4988690;28;20057;-80
2022/10/03 10:36:22;;;;;;;20.08;7.38;;;;;;;25.57;50.86;101601.66;4999091;28;20133;-80
2022/10/03 10:39:23;;;;;;;26.90;8.63;;;;;;;25.73;50.14;101601.22;5022828;28;20446;-81
2022/10/03 10:42:27;;;;;;;22.20;6.47;;;;;;;25.79;49.31;101599.53;5002668;28;20128;-79
2022/10/03 10:45:15;;;;;;;13.55;6.90;;;;;;;25.95;49.53;101600.97;5007286;28;20046;-80
2022/10/03 10:48:17;;;;;;;23.08;8.85;;;;;;;25.63;49.42;101579.03;5007428;28;20042;-78
2022/10/03 10:51:24;;;;;;;18.33;8.10;;;;;;;25.32;50.41;101580.59;4991366;28;20056;-79
2022/10/03 10:54:03;;;;;;;22.10;9.27;;;;;;;24.78;50.82;101481.09;5010880;28;20389;-79
2022/10/03 10:57:00;;;;;;;19.55;9.13;;;;;;;25.58;50.66;101581.56;5009794;28;20057;-80
2022/10/03 10:59:49;;;;;;;21.42;8.07;;;;;;;25.52;49.71;101528.06;5010980;28;20049;-79
2022/10/03 11:02:16;;;;;;;19.60;8.63;;;;;;;25.98;49.62;101576.06;5009532;28;20095;-80
2022/10/03 11:05:24;;;;;;;26.67;10.27;;;;;;;26.25;48.57;101579.50;5009415;28;20142;-79
2022/10/03 11:08:28;;;;;;;18.17;9.00;;;;;;;26.32;48.41;101583.03;4970696;28;20145;-79
2022/10/03 11:11:20;;;;;;;18.15;7.60;;;;;;;26.03;48.65;101527.28;4954401;28;20046;-81
2022/10/03 11:14:41;;;;;;;19.75;7.75;;;;;;;26.10;48.80;101573.50;5005590;28;20054;-81
2022/10/03 11:17:36;;;;;;;17.63;8.20;;;;;;;25.96;49.17;101567.28;4954964;28;20051;-80
2022/10/03 11:20:31;;;;;;;20.13;7.80;;;;;;;25.91;49.43;101565.19;5010337;28;20510;-80
2022/10/03 11:23:27;;;;;;;18.60;6.85;;;;;;;25.68;50.01;101526.75;5011226;28;20053;-79
2022/10/03 11:26:09;;;;;;;21.52;8.05;;;;;;;25.84;49.43;101552.66;5009066;28;20081;-81
2022/10/03 11:29:13;;;;;;;21.90;7.80;;;;;;;25.66;49.10;101547.91;4995934;28;20089;-80
2022/10/03 11:32:13;;;;;;;14.35;6.25;;;;;;;25.54;50.51;101555.88;4990835;28;20470;-80
2022/10/03 11:35:07;;;;;;;19.38;7.57;;;;;;;25.44;50.48;101547.31;4990598;28;20085;-79
2022/10/03 11:37:51;;;;;;;17.25;8.45;;;;;;;25.27;50.74;101546.91;4999483;28;20058;-81
2022/10/03 11:40:27;;;;;;;13.48;6.68;;;;;;;25.26;50.75;101546.06;5005268;28;20060;-79
2022/10/03 11:43:20;;;;;;;14.80;6.35;;;;;;;24.85;51.27;101498.22;5024224;28;20403;-80
2022/10/03 11:46:00;;;;;;;19.40;7.88;;;;;;;24.87;51.46;101515.16;5020199;28;20131;-80
2022/10/03 11:48:57;;;;;;;17.02;7.28;;;;;;;24.97;51.63;101531.03;5032429;28;20495;-80
2022/10/03 11:51:40;;;;;;;17.42;7.07;;;;;;;25.03;51.42;101541.06;5020307;28;20047;-80
2022/10/03 11:54:13;;;;;;;17.40;5.50;;;;;;;24.69;52.06;101490.50;5000512;28;20146;-81
2022/10/03 11:57:08;;;;;;;20.83;5.20;;;;;;;24.89;52.17;101526.66;5000328;28;20054;-80
2022/10/03 11:59:37;;;;;;;16.27;5.70;;;;;;;24.80;51.49;101538.75;5002889;28;20058;-81
2022/10/03 12:02:16;;;;;;;18.83;5.82;;;;;;;24.75;51.55;101538.53;4997619;28;20409;-80
2022/10/03 12:04:50;;;;;;;19.85;6.97;;;;;;;24.76;51.63;101540.22;4999684;28;20472;-79
2022/10/03 12:10:39;;;;;;;15.43;5.80;;;;;;;24.16;52.17;101428.00;5002204;28;20092;-80
2022/10/03 12:13:33;;;;;;;19.58;6.68;;;;;;;24.74;52.63;101520.59;5025055;28;20057;-80
2022/10/03 12:16:01;;;;;;;12.45;5.30;;;;;;;24.73;51.83;101513.47;5000799;28;20133;-81
2022/10/03 12:18:54;;;;;;;15.48;6.03;;;;;;;24.83;50.61;101519.34;5000510;28;20136;-79
2022/10/03 12:21:42;;;;;;;14.82;5.15;;;;;;;24.18;51.11;101415.91;4995505;28;20046;-79
2022/10/03 12:24:24;;;;;;;13.40;5.43;;;;;;;24.22;50.58;101408.19;5008366;28;20600;-79
2022/10/03 12:26:59;;;;;;;14.52;5.30;;;;;;;24.61;50.73;101475.25;5009805;28;20553;-80
2022/10/03 12:29:30;;;;;;;12.98;5.68;;;;;;;24.78;51.07;101510.13;4996361;28;20478;-80
2022/10/03 12:32:24;;;;;;;13.38;5.55;;;;;;;24.63;52.27;101483.19;4989777;28;20057;-79
2022/10/03 12:34:50;;;;;;;15.85;4.75;;;;;;;24.80;51.78;101508.06;4990285;28;20278;-80
2022/10/03 12:37:31;;;;;;;12.10;5.13;;;;;;;24.49;51.52;101464.19;4996488;28;20471;-79
2022/10/03 12:40:05;;;;;;;13.23;5.43;;;;;;;24.72;51.87;101490.09;5027041;28;20084;-80
2022/10/03 12:42:38;;;;;;;12.68;5.57;;;;;;;24.78;51.36;101508.25;5029327;28;20041;-79
2022/10/03 12:45:23;;;;;;;8.90;4.28;;;;;;;24.73;51.16;101491.75;4993248;28;20077;-80
2022/10/03 12:48:07;;;;;;;12.68;4.95;;;;;;;24.73;51.35;101481.75;4991552;28;20314;-80
2022/10/03 12:50:49;;;;;;;20.55;6.28;;;;;;;24.78;50.50;101489.25;5026016;28;20526;-81
2022/10/03 12:53:16;;;;;;;14.77;5.22;;;;;;;24.78;50.83;101486.53;5009341;28;20076;-79
2022/10/03 12:55:58;;;;;;;17.15;5.78;;;;;;;24.62;51.41;101476.09;5010130;28;20058;-79
2022/10/03 12:58:31;;;;;;;20.48;5.18;;;;;;;24.70;51.34;101486.75;5009934;28;20154;-79
2022/10/03 13:01:19;;;;;;;16.33;5.32;;;;;;;24.70;51.09;101482.16;5004184;28;20207;-78
2022/10/03 13:04:33;;;;;;;9.05;5.00;;;;;;;24.59;50.72;101462.94;5009172;28;20129;-79
2022/10/03 13:07:25;;;;;;;14.60;5.72;;;;;;;24.70;50.61;101484.03;5010167;28;20068;-80
2022/10/03 13:10:10;;;;;;;13.23;5.28;;;;;;;24.69;50.65;101479.66;5010853;28;20060;-78